createdAt,value
2022-10-23T00:01:35.906Z,48.75
2022-10-23T00:05:40.495Z,53.58
2022-10-23T00:07:42.444Z,51.92
2022-10-23T00:09:44.034Z,56.92
2022-10-23T00:11:47.992Z,50.80
2022-10-23T00:13:50.990Z,49.25
2022-10-23T00:17:59.169Z,55.63
2022-10-23T00:20:01.046Z,49.63
2022-10-23T00:22:02.954Z,55.53
2022-10-23T00:24:04.985Z,50.40
2022-10-23T00:26:08.145Z,53.65
2022-10-23T00:28:10.247Z,51.72
2022-10-23T00:30:12.750Z,49.75
2022-10-23T00:32:14.331Z,56.92
2022-10-23T00:34:15.867Z,49.72
2022-10-23T00:36:18.760Z,51.72
2022-10-23T00:38:20.398Z,54.63
2022-10-23T00:40:21.944Z,51.60
2022-10-23T00:42:24.172Z,53.80
2022-10-23T00:44:25.720Z,51.80
2022-10-23T00:46:27.765Z,48.78
2022-10-23T00:48:29.522Z,53.60
2022-10-23T00:50:32.990Z,51.03
2022-10-23T00:52:36.899Z,51.42
2022-10-23T00:54:40.286Z,52.03
2022-10-23T00:56:43.595Z,50.50
2022-10-23T00:58:45.132Z,51.65
2022-10-23T01:00:48.955Z,47.97
2022-10-23T01:02:51.123Z,53.08
2022-10-23T01:04:52.739Z,61.55
2022-10-23T01:07:05.734Z,55.63
2022-10-23T01:09:07.480Z,52.58
2022-10-23T01:11:31.695Z,53.03
2022-10-23T01:13:44.548Z,55.00
2022-10-23T01:16:21.348Z,57.85
2022-10-23T01:18:36.182Z,59.20
2022-10-23T01:20:40.707Z,52.90
2022-10-23T01:22:45.342Z,59.13
2022-10-23T01:24:46.904Z,53.83
2022-10-23T01:27:08.929Z,59.78
2022-10-23T01:29:10.524Z,57.38
2022-10-23T01:31:16.232Z,60.15
2022-10-23T01:33:22.049Z,58.58
2022-10-23T01:35:42.507Z,59.75
2022-10-23T01:37:50.045Z,59.00
2022-10-23T01:39:53.203Z,61.58
2022-10-23T01:44:14.283Z,63.38
2022-10-23T01:46:18.010Z,67.35
2022-10-23T01:48:22.102Z,68.80
2022-10-23T01:50:24.965Z,63.90
2022-10-23T01:52:26.831Z,71.70
2022-10-23T01:54:33.524Z,62.13
2022-10-23T01:56:36.743Z,60.22
2022-10-23T01:58:39.837Z,64.80
2022-10-23T02:02:43.922Z,58.95
2022-10-23T02:04:49.179Z,63.50
2022-10-23T02:06:50.898Z,58.67
2022-10-23T02:08:52.705Z,61.55
2022-10-23T02:11:00.504Z,60.80
2022-10-23T02:13:07.967Z,61.72
2022-10-23T02:15:14.168Z,61.40
2022-10-23T02:17:36.430Z,59.53
2022-10-23T02:19:46.927Z,60.67
2022-10-23T02:21:56.366Z,65.25
2022-10-23T02:24:02.752Z,65.93
2022-10-23T02:26:24.511Z,59.08
2022-10-23T02:28:30.974Z,64.47
2022-10-23T02:30:34.425Z,68.13
2022-10-23T02:32:37.254Z,61.78
2022-10-23T02:34:39.106Z,66.57
2022-10-23T02:36:41.047Z,73.10
2022-10-23T02:38:43.530Z,65.75
2022-10-23T02:40:46.502Z,72.63
2022-10-23T02:42:52.813Z,74.85
2022-10-23T02:44:54.302Z,72.20
2022-10-23T02:46:55.769Z,69.85
2022-10-23T02:49:09.720Z,68.72
2022-10-23T02:51:30.208Z,67.68
2022-10-23T02:53:37.486Z,65.70
2022-10-23T02:55:51.543Z,71.32
2022-10-23T02:57:53.061Z,65.22
2022-10-23T03:00:03.334Z,72.88
2022-10-23T03:02:37.623Z,64.85
2022-10-23T03:04:40.147Z,73.57
2022-10-23T03:06:41.781Z,66.88
2022-10-23T03:08:45.434Z,74.75
2022-10-23T03:10:49.881Z,76.00
2022-10-23T03:12:51.567Z,71.32
2022-10-23T03:14:53.281Z,65.60
2022-10-23T03:16:54.852Z,64.15
2022-10-23T03:18:56.411Z,68.18
2022-10-23T03:20:58.272Z,79.25
2022-10-23T03:22:59.935Z,72.68
2022-10-23T03:25:01.845Z,75.35
2022-10-23T03:27:03.691Z,81.13
2022-10-23T03:29:05.460Z,69.22
2022-10-23T03:31:07.009Z,80.53
2022-10-23T03:33:08.775Z,79.68
2022-10-23T03:35:10.352Z,77.50
2022-10-23T03:37:12.003Z,83.13
2022-10-23T03:39:13.765Z,77.50
2022-10-23T03:41:15.367Z,78.72
2022-10-23T03:43:16.907Z,83.05
2022-10-23T03:45:18.769Z,82.10
2022-10-23T03:47:20.982Z,81.30
2022-10-23T03:49:22.591Z,84.10
2022-10-23T03:51:24.428Z,79.32
2022-10-23T03:53:25.959Z,79.72
2022-10-23T03:55:27.658Z,86.55
2022-10-23T03:57:29.495Z,84.95
2022-10-23T03:59:31.126Z,79.88
2022-10-23T04:01:33.032Z,78.82
2022-10-23T04:03:34.822Z,73.85
2022-10-23T04:05:38.501Z,74.43
2022-10-23T04:07:40.022Z,66.85
2022-10-23T04:09:41.877Z,73.97
2022-10-23T04:11:43.396Z,71.45
2022-10-23T04:13:44.925Z,76.93
2022-10-23T04:15:50.483Z,69.22
2022-10-23T04:17:52.104Z,77.68
2022-10-23T04:19:53.659Z,66.18
2022-10-23T04:21:57.040Z,75.45
2022-10-23T04:23:58.696Z,70.43
2022-10-23T04:26:00.345Z,68.07
2022-10-23T04:28:02.080Z,68.03
2022-10-23T04:30:03.776Z,65.88
2022-10-23T04:32:06.795Z,65.20
2022-10-23T04:36:10.099Z,59.15
2022-10-23T04:38:11.734Z,67.45
2022-10-23T04:40:13.490Z,64.25
2022-10-23T04:42:15.280Z,67.18
2022-10-23T04:44:17.216Z,69.07
2022-10-23T04:46:18.973Z,63.05
2022-10-23T04:48:23.379Z,68.35
2022-10-23T04:50:27.630Z,68.97
2022-10-23T04:52:29.334Z,66.47
2022-10-23T04:54:35.248Z,68.82
2022-10-23T04:56:36.863Z,70.32
2022-10-23T04:58:38.594Z,72.82
2022-10-23T05:00:40.122Z,72.20
2022-10-23T05:02:42.360Z,70.43
2022-10-23T05:04:44.292Z,73.88
2022-10-23T05:06:45.843Z,73.18
2022-10-23T05:08:47.402Z,71.78
2022-10-23T05:10:49.882Z,79.20
2022-10-23T05:12:51.624Z,73.30
2022-10-23T05:14:53.595Z,68.82
2022-10-23T05:17:04.343Z,70.53
2022-10-23T05:19:07.405Z,70.68
2022-10-23T05:21:12.543Z,76.30
2022-10-23T05:23:14.943Z,73.82
2022-10-23T05:25:16.875Z,74.18
2022-10-23T05:27:18.505Z,69.25
2022-10-23T05:29:20.525Z,79.10
2022-10-23T05:31:23.472Z,80.22
2022-10-23T05:35:26.830Z,74.03
2022-10-23T05:37:28.652Z,69.53
2022-10-23T05:39:30.243Z,71.72
2022-10-23T05:41:32.291Z,73.30
2022-10-23T05:43:33.852Z,74.63
2022-10-23T05:45:35.430Z,75.35
2022-10-23T05:47:37.164Z,71.45
2022-10-23T05:49:38.719Z,72.03
2022-10-23T05:51:40.553Z,75.43
2022-10-23T05:53:42.605Z,71.23
2022-10-23T05:55:44.175Z,73.20
2022-10-23T05:57:46.059Z,84.18
2022-10-23T05:59:47.956Z,72.47
2022-10-23T06:01:49.589Z,76.82
2022-10-23T06:03:51.273Z,66.93
2022-10-23T06:05:52.990Z,74.65
2022-10-23T06:07:58.707Z,71.00
2022-10-23T06:10:01.382Z,73.40
2022-10-23T06:12:03.543Z,70.03
2022-10-23T06:14:05.803Z,70.40
2022-10-23T06:16:11.228Z,67.45
2022-10-23T06:18:12.969Z,69.82
2022-10-23T06:20:14.625Z,66.90
2022-10-23T06:22:16.157Z,68.20
2022-10-23T06:24:17.971Z,64.93
2022-10-23T06:26:19.608Z,61.67
2022-10-23T06:28:21.170Z,63.47
2022-10-23T06:30:23.070Z,57.63
2022-10-23T06:32:24.629Z,65.65
2022-10-23T06:34:26.183Z,64.82
2022-10-23T06:36:27.993Z,59.40
2022-10-23T06:38:29.553Z,55.15
2022-10-23T06:40:31.063Z,56.25
2022-10-23T06:42:32.880Z,49.25
2022-10-23T06:44:34.379Z,57.22
2022-10-23T06:46:35.900Z,50.30
2022-10-23T06:48:37.625Z,45.75
2022-10-23T06:50:39.329Z,44.88
2022-10-23T06:52:46.900Z,48.10
2022-10-23T06:54:49.258Z,48.20
2022-10-23T06:56:51.207Z,53.70
2022-10-23T06:58:52.751Z,45.08
2022-10-23T07:00:54.548Z,46.63
2022-10-23T07:02:56.120Z,48.10
2022-10-23T07:04:57.975Z,41.40
2022-10-23T07:06:59.789Z,48.22
2022-10-23T07:09:01.355Z,63.95
2022-10-23T07:11:07.836Z,43.50
2022-10-23T07:13:10.336Z,47.88
2022-10-23T07:15:11.902Z,45.58
2022-10-23T07:17:13.643Z,50.10
2022-10-23T07:19:15.507Z,47.92
2022-10-23T07:21:17.143Z,51.17
2022-10-23T07:23:18.727Z,57.30
2022-10-23T07:25:24.290Z,55.10
2022-10-23T07:27:25.917Z,50.88
2022-10-23T07:29:27.453Z,49.45
2022-10-23T07:31:29.281Z,55.30
2022-10-23T07:33:30.917Z,53.15
2022-10-23T07:35:34.423Z,52.03
2022-10-23T07:37:39.488Z,49.75
2022-10-23T07:39:41.084Z,57.28
2022-10-23T07:41:42.844Z,53.88
2022-10-23T07:43:44.731Z,52.33
2022-10-23T07:45:47.323Z,49.63
2022-10-23T07:47:52.139Z,50.10
2022-10-23T07:49:53.933Z,56.38
2022-10-23T07:51:58.724Z,55.40
2022-10-23T07:54:00.320Z,51.88
2022-10-23T07:56:03.057Z,49.45
2022-10-23T07:58:04.616Z,58.22
2022-10-23T08:00:06.842Z,52.00
2022-10-23T08:02:12.539Z,46.65
2022-10-23T08:04:14.356Z,50.28
2022-10-23T08:06:15.912Z,51.20
2022-10-23T08:08:17.773Z,51.45
2022-10-23T08:10:19.336Z,45.00
2022-10-23T08:12:20.908Z,49.85
2022-10-23T08:14:22.722Z,46.15
2022-10-23T08:16:27.798Z,51.42
2022-10-23T08:18:29.439Z,51.60
2022-10-23T08:20:31.199Z,48.75
2022-10-23T08:22:32.757Z,47.38
2022-10-23T08:24:34.507Z,47.83
2022-10-23T08:26:36.263Z,76.70
2022-10-23T08:28:38.217Z,41.28
2022-10-23T08:30:39.848Z,41.45
2022-10-23T08:32:41.927Z,46.58
2022-10-23T08:34:43.963Z,48.50
2022-10-23T08:36:45.874Z,39.28
2022-10-23T08:38:48.118Z,41.47
2022-10-23T08:40:49.833Z,46.23
2022-10-23T08:42:59.106Z,41.22
2022-10-23T08:45:06.853Z,42.55
2022-10-23T08:47:11.483Z,41.13
2022-10-23T08:49:25.444Z,44.88
2022-10-23T08:51:30.088Z,48.08
2022-10-23T08:53:51.952Z,48.17
2022-10-23T08:55:59.543Z,55.38
2022-10-23T08:58:10.948Z,50.53
2022-10-23T09:00:14.168Z,55.20
2022-10-23T09:02:31.846Z,49.13
2022-10-23T09:04:37.396Z,47.35
2022-10-23T09:07:19.756Z,48.42
2022-10-23T09:09:21.360Z,52.88
2022-10-23T09:11:29.013Z,49.45
2022-10-23T09:13:32.297Z,46.53
2022-10-23T09:15:42.400Z,52.80
2022-10-23T09:17:45.231Z,54.47
2022-10-23T09:19:48.773Z,50.35
2022-10-23T09:21:50.727Z,49.97
2022-10-23T09:23:53.502Z,46.88
2022-10-23T09:25:58.115Z,48.28
2022-10-23T09:28:04.288Z,52.55
2022-10-23T09:30:08.018Z,45.83
2022-10-23T09:32:09.628Z,46.07
2022-10-23T09:34:18.190Z,44.15
2022-10-23T09:36:23.431Z,48.42
2022-10-23T09:38:39.190Z,50.72
2022-10-23T09:40:42.701Z,41.65
2022-10-23T09:42:52.068Z,43.72
2022-10-23T09:44:54.523Z,44.05
2022-10-23T09:46:59.544Z,42.00
2022-10-23T09:49:03.578Z,38.80
2022-10-23T09:51:21.088Z,42.60
2022-10-23T09:53:38.209Z,39.63
2022-10-23T09:55:40.119Z,36.80
2022-10-23T09:57:43.297Z,39.78
2022-10-23T09:59:51.467Z,38.60
2022-10-23T10:01:57.771Z,39.53
2022-10-23T10:03:59.694Z,44.67
2022-10-23T10:08:09.203Z,34.63
2022-10-23T10:10:14.036Z,41.30
2022-10-23T10:12:24.483Z,40.53
2022-10-23T10:14:42.884Z,40.33
2022-10-23T10:17:04.606Z,40.50
2022-10-23T10:19:11.978Z,37.70
2022-10-23T10:21:21.018Z,38.97
2022-10-23T10:23:27.457Z,58.33
2022-10-23T10:25:29.068Z,41.10
2022-10-23T10:27:43.587Z,39.80
2022-10-23T10:30:04.839Z,38.45
2022-10-23T10:32:29.155Z,42.15
2022-10-23T10:34:43.246Z,43.60
2022-10-23T10:36:50.693Z,42.60
2022-10-23T10:39:13.777Z,38.33
2022-10-23T10:41:35.675Z,34.45
2022-10-23T10:43:56.107Z,33.33
2022-10-23T10:45:58.283Z,38.15
2022-10-23T10:48:12.458Z,38.57
2022-10-23T10:50:32.668Z,30.75
2022-10-23T10:52:48.301Z,34.65
2022-10-23T10:54:58.475Z,34.22
2022-10-23T10:57:03.227Z,28.63
2022-10-23T10:59:11.100Z,29.58
2022-10-23T11:01:28.692Z,29.00
2022-10-23T11:03:40.390Z,25.58
2022-10-23T11:05:44.864Z,26.33
2022-10-23T11:07:54.519Z,27.90
2022-10-23T11:10:00.811Z,27.42
2022-10-23T11:12:02.475Z,30.90
2022-10-23T11:14:05.560Z,31.30
2022-10-23T11:16:28.180Z,33.58
2022-10-23T11:20:47.842Z,24.58
2022-10-23T11:22:57.892Z,26.55
2022-10-23T11:25:18.358Z,29.13
2022-10-23T11:27:40.780Z,25.92
2022-10-23T11:30:01.532Z,28.45
2022-10-23T11:32:29.305Z,25.30
2022-10-23T11:34:52.832Z,25.38
2022-10-23T11:36:55.904Z,29.58
2022-10-23T11:39:07.003Z,25.35
2022-10-23T11:41:19.966Z,30.08
2022-10-23T11:43:34.793Z,27.30
2022-10-23T11:45:37.728Z,28.07
2022-10-23T11:47:42.803Z,26.50
2022-10-23T11:49:44.472Z,25.05
2022-10-23T11:51:59.327Z,26.85
2022-10-23T11:54:24.260Z,28.10
2022-10-23T11:56:29.573Z,26.95
2022-10-23T11:58:45.454Z,28.48
2022-10-23T12:00:56.804Z,27.75
2022-10-23T12:03:00.831Z,28.17
2022-10-23T12:05:08.263Z,24.90
2022-10-23T12:07:29.233Z,23.58
2022-10-23T12:09:31.405Z,24.33
2022-10-23T12:11:47.390Z,27.10
2022-10-23T12:13:49.342Z,24.60
2022-10-23T12:15:57.167Z,28.48
2022-10-23T12:18:13.376Z,23.98
2022-10-23T12:20:34.318Z,25.52
2022-10-23T12:22:38.582Z,26.88
2022-10-23T12:24:41.267Z,25.75
2022-10-23T12:26:52.355Z,25.23
2022-10-23T12:29:09.467Z,26.45
2022-10-23T12:31:19.369Z,24.83
2022-10-23T12:33:43.042Z,24.25
2022-10-23T12:36:04.271Z,24.30
2022-10-23T12:38:19.551Z,25.10
2022-10-23T12:40:23.048Z,23.45
2022-10-23T12:42:26.367Z,23.55
2022-10-23T12:44:29.362Z,27.30
2022-10-23T12:46:42.765Z,27.98
2022-10-23T12:48:49.285Z,29.58
2022-10-23T12:50:55.140Z,28.80
2022-10-23T12:53:00.512Z,36.20
2022-10-23T12:55:11.842Z,26.85
2022-10-23T12:57:27.367Z,29.90
2022-10-23T12:59:41.899Z,27.35
2022-10-23T13:01:44.265Z,28.27
2022-10-23T13:03:48.004Z,33.20
2022-10-23T13:05:51.589Z,31.60
2022-10-23T13:07:56.698Z,31.58
2022-10-23T13:09:59.187Z,36.13
2022-10-23T13:12:02.495Z,28.73
2022-10-23T13:14:14.277Z,33.13
2022-10-23T13:16:18.974Z,34.08
2022-10-23T13:18:25.430Z,30.38
2022-10-23T13:20:28.850Z,31.77
2022-10-23T13:22:33.369Z,31.67
2022-10-23T13:24:35.398Z,25.98
2022-10-23T13:26:45.192Z,30.58
2022-10-23T13:28:48.089Z,33.47
2022-10-23T13:31:02.301Z,36.75
2022-10-23T13:33:22.688Z,34.70
2022-10-23T13:35:24.902Z,35.00
2022-10-23T13:37:33.619Z,31.05
2022-10-23T13:39:46.644Z,47.10
2022-10-23T13:41:48.728Z,33.33
2022-10-23T13:43:50.853Z,38.83
2022-10-23T13:45:52.984Z,40.00
2022-10-23T13:47:54.657Z,43.08
2022-10-23T13:49:56.667Z,39.88
2022-10-23T13:56:30.215Z,34.95
2022-10-23T13:58:32.880Z,40.55
2022-10-23T14:00:34.915Z,46.58
2022-10-23T14:02:37.002Z,38.70
2022-10-23T14:04:39.265Z,39.13
2022-10-23T14:06:42.122Z,36.75
2022-10-23T14:08:51.413Z,38.25
2022-10-23T14:10:53.034Z,37.03
2022-10-23T14:12:55.975Z,36.80
2022-10-23T14:14:58.201Z,34.83
2022-10-23T14:17:03.036Z,34.50
2022-10-23T14:19:04.834Z,37.72
2022-10-23T14:21:07.696Z,37.03
2022-10-23T14:23:11.132Z,44.58
2022-10-23T14:25:12.960Z,32.72
2022-10-23T14:27:17.329Z,35.00
2022-10-23T14:29:23.937Z,33.40
2022-10-23T14:31:26.220Z,36.88
2022-10-23T14:33:29.137Z,30.95
2022-10-23T14:35:30.785Z,36.40
2022-10-23T14:37:33.654Z,31.05
2022-10-23T14:39:35.627Z,32.40
2022-10-23T14:41:39.327Z,29.40
2022-10-23T14:43:42.596Z,31.85
2022-10-23T14:45:44.527Z,34.05
2022-10-23T14:47:46.672Z,29.02
2022-10-23T14:49:54.583Z,27.40
2022-10-23T14:52:02.425Z,27.95
2022-10-23T14:54:09.017Z,26.88
2022-10-23T14:56:10.812Z,24.85
2022-10-23T14:58:13.116Z,30.95
2022-10-23T15:00:15.186Z,28.83
2022-10-23T15:02:18.021Z,29.42
2022-10-23T15:04:20.657Z,26.85
2022-10-23T15:06:22.822Z,27.07
2022-10-23T15:08:24.665Z,36.38
2022-10-23T15:10:26.638Z,25.98
2022-10-23T15:12:28.259Z,75.63
2022-10-23T15:14:30.180Z,36.22
2022-10-23T15:16:32.442Z,32.58
2022-10-23T15:21:00.693Z,31.00
2022-10-23T15:23:02.988Z,34.72
2022-10-23T15:25:05.481Z,33.85
2022-10-23T15:27:07.216Z,32.65
2022-10-23T15:29:10.005Z,32.78
2022-10-23T15:33:17.727Z,30.95
2022-10-23T15:35:21.725Z,24.52
2022-10-23T15:37:24.108Z,26.17
2022-10-23T15:39:28.411Z,30.45
2022-10-23T15:41:31.609Z,27.25
2022-10-23T15:43:33.315Z,25.70
2022-10-23T15:45:34.956Z,30.63
2022-10-23T15:47:36.880Z,34.38
2022-10-23T15:49:39.875Z,32.58
2022-10-23T15:51:41.944Z,32.75
2022-10-23T15:53:43.940Z,30.98
2022-10-23T15:55:46.587Z,29.95
2022-10-23T15:57:48.346Z,35.28
2022-10-23T15:59:51.188Z,36.17
2022-10-23T16:01:53.082Z,35.22
2022-10-23T16:03:54.996Z,32.13
2022-10-23T16:05:56.846Z,36.00
2022-10-23T16:07:58.744Z,33.05
2022-10-23T16:10:00.692Z,34.33
2022-10-23T16:12:03.167Z,33.22
2022-10-23T16:14:05.109Z,34.65
2022-10-23T16:16:07.075Z,30.48
2022-10-23T16:18:08.979Z,35.10
2022-10-23T16:20:10.886Z,33.88
2022-10-23T16:22:12.496Z,31.17
2022-10-23T16:24:14.365Z,33.85
2022-10-23T16:26:15.938Z,32.08
2022-10-23T16:28:17.527Z,47.15
2022-10-23T16:30:22.234Z,32.17
2022-10-23T16:32:23.805Z,34.72
2022-10-23T16:34:25.839Z,36.85
2022-10-23T16:36:28.387Z,31.20
2022-10-23T16:38:29.980Z,31.10
2022-10-23T16:40:31.825Z,34.58
2022-10-23T16:42:33.721Z,31.90
2022-10-23T16:44:35.287Z,31.65
2022-10-23T16:46:38.919Z,29.58
2022-10-23T16:48:40.992Z,31.63
2022-10-23T16:50:42.579Z,35.15
2022-10-23T16:52:44.473Z,33.15
2022-10-23T16:54:46.584Z,32.47
2022-10-23T16:56:48.484Z,34.58
2022-10-23T16:58:50.173Z,36.25
2022-10-23T17:00:57.905Z,32.30
2022-10-23T17:02:59.575Z,32.88
2022-10-23T17:05:01.219Z,31.17
2022-10-23T17:07:03.717Z,29.05
2022-10-23T17:09:05.512Z,33.80
2022-10-23T17:11:09.069Z,32.63
2022-10-23T17:13:11.199Z,33.58
2022-10-23T17:15:12.817Z,39.80
2022-10-23T17:17:14.474Z,33.67
2022-10-23T17:19:39.798Z,37.38
2022-10-23T17:21:39.658Z,48.57
2022-10-23T17:23:41.673Z,35.90
2022-10-23T17:25:43.460Z,39.45
2022-10-23T17:27:46.104Z,40.00
2022-10-23T17:29:47.878Z,42.95
2022-10-23T17:31:50.886Z,39.95
2022-10-23T17:33:54.602Z,129.82
2022-10-23T17:35:56.258Z,44.25
2022-10-23T17:37:58.041Z,37.50
2022-10-23T17:40:02.455Z,36.28
2022-10-23T17:42:22.209Z,49.60
2022-10-23T17:44:25.317Z,38.67
2022-10-23T17:46:30.397Z,36.03
2022-10-23T17:48:33.000Z,40.78
2022-10-23T17:50:35.515Z,35.38
2022-10-23T17:52:39.095Z,35.33
2022-10-23T17:54:43.455Z,36.33
2022-10-23T17:56:45.508Z,38.75
2022-10-23T17:58:47.699Z,35.20
2022-10-23T18:00:49.596Z,34.38
2022-10-23T18:02:55.596Z,38.45
2022-10-23T18:04:57.506Z,39.85
2022-10-23T18:06:59.413Z,39.40
2022-10-23T18:09:03.314Z,39.13
2022-10-23T18:11:05.496Z,38.67
2022-10-23T18:13:08.936Z,44.25
2022-10-23T18:15:11.157Z,41.72
2022-10-23T18:17:12.833Z,45.13
2022-10-23T18:19:17.141Z,42.55
2022-10-23T18:21:21.967Z,37.28
2022-10-23T18:23:23.895Z,47.17
2022-10-23T18:25:26.173Z,44.35
2022-10-23T18:27:29.424Z,46.90
2022-10-23T18:29:31.265Z,45.95
2022-10-23T18:31:33.761Z,43.47
2022-10-23T18:33:35.720Z,48.78
2022-10-23T18:35:37.460Z,48.40
2022-10-23T18:37:41.588Z,44.65
2022-10-23T18:39:44.439Z,51.42
2022-10-23T18:41:46.543Z,55.28
2022-10-23T18:43:48.301Z,45.20
2022-10-23T18:45:50.524Z,45.13
2022-10-23T18:47:52.550Z,58.63
2022-10-23T18:49:54.524Z,52.60
2022-10-23T18:51:58.355Z,55.80
2022-10-23T18:54:05.741Z,51.60
2022-10-23T18:56:08.458Z,51.35
2022-10-23T18:58:10.633Z,55.45
2022-10-23T19:00:13.118Z,50.90
2022-10-23T19:02:14.955Z,52.53
2022-10-23T19:04:18.407Z,52.90
2022-10-23T19:06:21.053Z,53.65
2022-10-23T19:08:22.915Z,52.47
2022-10-23T19:10:29.225Z,51.88
2022-10-23T19:12:31.275Z,51.80
2022-10-23T19:14:36.157Z,48.83
2022-10-23T19:17:02.492Z,51.97
2022-10-23T19:19:11.374Z,50.28
2022-10-23T19:21:13.829Z,58.92
2022-10-23T19:23:16.906Z,57.47
2022-10-23T19:25:26.257Z,54.90
2022-10-23T19:27:28.704Z,61.55
2022-10-23T19:29:31.390Z,65.47
2022-10-23T19:31:33.757Z,53.17
2022-10-23T19:33:39.270Z,51.95
2022-10-23T19:35:44.240Z,52.28
2022-10-23T19:37:46.872Z,52.97
2022-10-23T19:39:49.080Z,64.85
2022-10-23T19:41:51.887Z,65.63
2022-10-23T19:43:53.579Z,57.63
2022-10-23T19:45:55.637Z,63.17
2022-10-23T19:47:57.630Z,60.97
2022-10-23T19:49:59.358Z,64.70
2022-10-23T19:52:01.098Z,65.07
2022-10-23T19:54:03.828Z,69.53
2022-10-23T19:58:09.150Z,65.72
2022-10-23T20:00:11.904Z,65.30
2022-10-23T20:02:13.910Z,69.28
2022-10-23T20:04:17.800Z,70.40
2022-10-23T20:06:23.812Z,65.45
2022-10-23T20:08:25.555Z,62.97
2022-10-23T20:10:28.137Z,67.68
2022-10-23T20:12:31.218Z,68.40
2022-10-23T20:14:33.601Z,75.47
2022-10-23T20:16:39.466Z,83.05
2022-10-23T20:18:41.729Z,75.72
2022-10-23T20:20:43.830Z,74.30
2022-10-23T20:22:52.063Z,82.78
2022-10-23T20:24:57.390Z,87.45
2022-10-23T20:26:59.347Z,92.55
2022-10-23T20:29:01.230Z,93.15
2022-10-23T20:31:10.901Z,91.23
2022-10-23T20:33:12.989Z,79.65
2022-10-23T20:35:14.932Z,99.45
2022-10-23T20:37:17.057Z,82.25
2022-10-23T20:39:21.942Z,76.82
2022-10-23T20:41:28.492Z,78.93
2022-10-23T20:43:32.359Z,82.05
2022-10-23T20:45:34.212Z,88.15
2022-10-23T20:47:35.879Z,90.30
2022-10-23T20:49:38.202Z,97.00
2022-10-23T20:51:41.960Z,97.32
2022-10-23T20:53:44.803Z,98.78
2022-10-23T20:55:46.886Z,101.25
2022-10-23T20:57:48.853Z,94.38
2022-10-23T20:59:50.531Z,96.05
2022-10-23T21:01:55.445Z,92.15
2022-10-23T21:04:00.171Z,91.25
2022-10-23T21:06:08.648Z,84.93
2022-10-23T21:08:10.561Z,82.05
2022-10-23T21:10:12.287Z,92.90
2022-10-23T21:12:13.961Z,82.78
2022-10-23T21:14:16.252Z,76.70
2022-10-23T21:16:24.781Z,75.03
2022-10-23T21:18:44.930Z,70.90
2022-10-23T21:20:47.780Z,83.15
2022-10-23T21:22:54.227Z,91.88
2022-10-23T21:24:59.719Z,96.55
2022-10-23T21:27:02.027Z,130.82
2022-10-23T21:29:17.905Z,249.55
2022-10-23T21:31:21.864Z,171.55
2022-10-23T21:33:24.337Z,128.40
2022-10-23T21:35:27.857Z,118.10
2022-10-23T21:37:31.813Z,108.43
2022-10-23T21:39:35.311Z,112.18
2022-10-23T21:41:38.524Z,109.38
2022-10-23T21:43:41.124Z,99.28
2022-10-23T21:45:42.991Z,96.07
2022-10-23T21:47:44.963Z,97.90
2022-10-23T21:49:46.784Z,97.63
2022-10-23T21:51:48.732Z,102.13
2022-10-23T21:53:52.862Z,108.95
2022-10-23T21:55:56.048Z,101.95
2022-10-23T21:58:01.822Z,93.82
2022-10-23T22:00:05.197Z,100.53
2022-10-23T22:02:07.032Z,100.70
2022-10-23T22:04:10.369Z,97.13
2022-10-23T22:08:17.493Z,87.72
2022-10-23T22:10:19.547Z,91.65
2022-10-23T22:12:21.295Z,91.47
2022-10-23T22:14:23.308Z,90.05
2022-10-23T22:16:25.204Z,96.25
2022-10-23T22:18:26.922Z,96.32
2022-10-23T22:20:28.649Z,97.13
2022-10-23T22:22:30.520Z,95.03
2022-10-23T22:24:32.443Z,92.78
2022-10-23T22:26:40.007Z,99.63
2022-10-23T22:28:42.033Z,90.97
2022-10-23T22:30:43.855Z,96.28
2022-10-23T22:32:45.750Z,99.40
2022-10-23T22:34:52.733Z,97.00
2022-10-23T22:36:55.724Z,99.97
2022-10-23T22:38:57.506Z,100.30
2022-10-23T22:41:04.042Z,103.93
2022-10-23T22:43:05.784Z,102.80
2022-10-23T22:45:08.164Z,99.07
2022-10-23T22:47:10.103Z,92.78
2022-10-23T22:49:11.786Z,102.32
2022-10-23T22:51:16.077Z,93.72
2022-10-23T22:53:18.109Z,96.90
2022-10-23T22:55:19.793Z,92.45
2022-10-23T22:57:21.611Z,95.90
2022-10-23T22:59:23.745Z,95.82
2022-10-23T23:01:29.501Z,103.47
2022-10-23T23:03:31.690Z,100.68
2022-10-23T23:05:33.667Z,92.53
2022-10-23T23:07:35.522Z,102.43
2022-10-23T23:09:39.932Z,97.40
2022-10-23T23:11:51.315Z,98.57
2022-10-23T23:13:53.794Z,102.03
2022-10-23T23:15:55.616Z,98.97
2022-10-23T23:17:58.604Z,102.40
2022-10-23T23:20:00.233Z,101.43
2022-10-23T23:22:01.971Z,94.95
2022-10-23T23:24:04.035Z,103.05
2022-10-23T23:26:08.333Z,96.28
2022-10-23T23:28:14.604Z,91.78
2022-10-23T23:30:16.754Z,96.93
2022-10-23T23:32:18.864Z,95.82
2022-10-23T23:34:20.666Z,103.23
2022-10-23T23:36:25.372Z,95.35
2022-10-23T23:38:27.320Z,96.40
2022-10-23T23:40:28.998Z,93.50
2022-10-23T23:42:31.516Z,98.55
2022-10-23T23:44:33.470Z,96.30
2022-10-23T23:48:38.297Z,91.30
2022-10-23T23:50:39.968Z,93.45
2022-10-23T23:52:41.749Z,89.28
2022-10-23T23:54:43.677Z,91.75
2022-10-23T23:56:45.388Z,87.55
2022-10-23T23:58:47.724Z,89.55
